Time;durP1;ratioP1;P1;durP2;ratioP2;P2;SDS_P1;SDS_P2;PMS_P1;PMS_P2;Temp;Humidity;BMP_temperature;BMP_pressure;BME280_temperature;BME280_humidity;BME280_pressure;Samples;Min_cycle;Max_cycle;Signal;HPM_P1;HPM_P2
2021/10/14 00:01:04;;;;;;;5.93;3.40;;;;;;;;;;5002368;28;20154;-88
2021/10/14 00:03:30;;;;;;;5.03;3.30;;;;;;;;;;5019744;28;20034;-88
2021/10/14 00:05:56;;;;;;;5.82;3.78;;;;;;;;;;5019563;28;20022;-88
2021/10/14 00:08:22;;;;;;;9.20;4.07;;;;;;;;;;5019708;28;20408;-88
2021/10/14 00:10:48;;;;;;;5.88;4.43;;;;;;;;;;5019824;28;20033;-88
2021/10/14 00:13:14;;;;;;;9.70;5.75;;;;;;;;;;5002310;28;20022;-87
2021/10/14 00:15:42;;;;;;;9.10;5.35;;;;;;;;;;5019156;28;20034;-88
2021/10/14 00:18:08;;;;;;;8.35;5.47;;;;;;;;;;5001912;28;20033;-87
2021/10/14 00:20:34;;;;;;;8.85;4.68;;;;;;;;;;5019726;28;20117;-86
2021/10/14 00:23:00;;;;;;;8.73;5.53;;;;;;;;;;5019622;28;20025;-89
2021/10/14 00:25:26;;;;;;;12.77;7.03;;;;;;;;;;5019716;28;20026;-89
2021/10/14 00:27:53;;;;;;;16.95;8.20;;;;;;;;;;5002392;28;20320;-87
2021/10/14 00:30:19;;;;;;;14.57;7.15;;;;;;;;;;5001990;28;20026;-87
2021/10/14 00:32:46;;;;;;;9.63;7.10;;;;;;;;;;5019561;28;20026;-88
2021/10/14 00:35:12;;;;;;;12.38;6.85;;;;;;;;;;5019179;28;20022;-87
2021/10/14 00:37:38;;;;;;;12.48;6.75;;;;;;;;;;5019308;28;20029;-88
2021/10/14 00:40:05;;;;;;;14.00;5.90;;;;;;;;;;5019132;28;20036;-88
2021/10/14 00:42:31;;;;;;;9.95;5.80;;;;;;;;;;5001776;28;20022;-89
2021/10/14 00:44:57;;;;;;;10.82;5.32;;;;;;;;;;5019361;28;20029;-88
2021/10/14 00:50:57;;;;;;;7.28;4.85;;;;;;;;;;5019154;28;20044;-88
2021/10/14 00:53:24;;;;;;;11.75;6.40;;;;;;;;;;5001283;28;20045;-85
2021/10/14 00:55:50;;;;;;;9.68;5.82;;;;;;;;;;5020636;28;20030;-85
2021/10/14 00:58:16;;;;;;;10.50;5.88;;;;;;;;;;5018841;28;20050;-87
2021/10/14 01:00:42;;;;;;;7.82;4.60;;;;;;;;;;5018405;28;20049;-90
2021/10/14 01:06:11;;;;;;;8.00;4.47;;;;;;;;;;5018925;28;20025;-90
2021/10/14 01:08:37;;;;;;;5.75;4.18;;;;;;;;;;5001416;28;20079;-91
2021/10/14 01:11:03;;;;;;;7.05;3.90;;;;;;;;;;5018808;28;20083;-89
2021/10/14 01:13:29;;;;;;;7.90;4.40;;;;;;;;;;5018609;28;20102;-90
2021/10/14 01:15:56;;;;;;;8.65;4.18;;;;;;;;;;5001305;28;20033;-91
2021/10/14 01:21:25;;;;;;;5.35;3.92;;;;;;;;;;5018870;28;20072;-88
2021/10/14 01:23:51;;;;;;;5.32;4.07;;;;;;;;;;5001001;28;20029;-90
2021/10/14 01:26:17;;;;;;;5.72;4.00;;;;;;;;;;5018199;28;20476;-90
2021/10/14 01:28:43;;;;;;;5.90;3.85;;;;;;;;;;5034445;28;20346;-91
2021/10/14 01:31:09;;;;;;;4.93;3.90;;;;;;;;;;5020473;28;20304;-91
2021/10/14 01:33:55;;;;;;;5.50;3.78;;;;;;;;;;5022160;28;20045;-92
2021/10/14 01:36:21;;;;;;;4.00;3.38;;;;;;;;;;5018434;28;20030;-92
2021/10/14 01:38:48;;;;;;;7.18;4.18;;;;;;;;;;5018432;28;20049;-91
2021/10/14 01:41:14;;;;;;;8.27;4.18;;;;;;;;;;5018197;28;20032;-91
2021/10/14 01:43:40;;;;;;;6.35;4.65;;;;;;;;;;5017204;28;20030;-90
2021/10/14 01:46:06;;;;;;;7.03;3.92;;;;;;;;;;5017985;28;20022;-90
2021/10/14 01:52:01;;;;;;;6.50;3.90;;;;;;;;;;5018152;28;20450;-89
2021/10/14 01:54:27;;;;;;;5.30;3.70;;;;;;;;;;5017776;28;20049;-90
2021/10/14 01:56:53;;;;;;;6.60;4.05;;;;;;;;;;5017392;28;20018;-91
2021/10/14 01:59:19;;;;;;;6.20;4.00;;;;;;;;;;5017849;28;20041;-89
2021/10/14 02:01:45;;;;;;;11.98;4.35;;;;;;;;;;5000568;28;20065;-88
2021/10/14 02:07:14;;;;;;;6.75;4.00;;;;;;;;;;5018121;28;20029;-89
2021/10/14 02:09:40;;;;;;;5.00;3.97;;;;;;;;;;5017647;28;20038;-88
2021/10/14 02:12:06;;;;;;;5.60;3.85;;;;;;;;;;5017855;28;20018;-88
2021/10/14 02:14:32;;;;;;;6.85;4.10;;;;;;;;;;5017766;28;20022;-89
2021/10/14 02:16:58;;;;;;;5.70;4.38;;;;;;;;;;5017586;28;20308;-87
2021/10/14 02:19:24;;;;;;;5.35;3.72;;;;;;;;;;5017609;28;20381;-88
2021/10/14 02:21:50;;;;;;;7.00;3.97;;;;;;;;;;5017566;28;20405;-89
2021/10/14 02:24:16;;;;;;;6.63;4.30;;;;;;;;;;5017880;28;20033;-88
2021/10/14 02:26:42;;;;;;;6.45;4.03;;;;;;;;;;5017907;28;20026;-88
2021/10/14 02:29:12;;;;;;;20.65;4.40;;;;;;;;;;5000819;28;20451;-88
2021/10/14 02:31:39;;;;;;;4.93;3.95;;;;;;;;;;5017463;28;20324;-87
2021/10/14 02:34:06;;;;;;;7.30;4.13;;;;;;;;;;5017654;28;20033;-86
2021/10/14 02:36:32;;;;;;;4.85;3.30;;;;;;;;;;5017589;28;20025;-86
2021/10/14 02:38:58;;;;;;;6.43;4.30;;;;;;;;;;5017508;28;20118;-87
2021/10/14 02:41:25;;;;;;;6.05;4.68;;;;;;;;;;5017558;28;20042;-87
2021/10/14 02:43:51;;;;;;;6.05;4.13;;;;;;;;;;5017415;28;20025;-87
2021/10/14 02:46:17;;;;;;;6.18;4.00;;;;;;;;;;5017787;28;20080;-87
2021/10/14 02:49:01;;;;;;;6.20;4.55;;;;;;;;;;5017631;28;20042;-87
2021/10/14 02:51:27;;;;;;;9.40;4.78;;;;;;;;;;5016409;28;20042;-87
2021/10/14 02:53:53;;;;;;;7.30;4.60;;;;;;;;;;5017848;28;20026;-87
2021/10/14 02:56:19;;;;;;;5.80;4.53;;;;;;;;;;5017602;28;20065;-87
2021/10/14 02:58:45;;;;;;;8.90;4.43;;;;;;;;;;5017005;28;20092;-87
2021/10/14 03:01:11;;;;;;;6.45;5.05;;;;;;;;;;5017264;28;20022;-88
2021/10/14 03:03:37;;;;;;;9.00;4.30;;;;;;;;;;5017317;28;20105;-87
2021/10/14 03:06:04;;;;;;;7.05;4.40;;;;;;;;;;5017177;28;20503;-87
2021/10/14 03:08:30;;;;;;;5.60;4.10;;;;;;;;;;5017248;28;20041;-86
2021/10/14 03:10:57;;;;;;;6.07;4.80;;;;;;;;;;5020339;28;20144;-85
2021/10/14 03:13:23;;;;;;;5.90;4.47;;;;;;;;;;5021026;28;20041;-86
2021/10/14 03:15:49;;;;;;;7.72;4.95;;;;;;;;;;5020707;28;20032;-87
2021/10/14 03:21:19;;;;;;;9.05;6.38;;;;;;;;;;5020651;28;20125;-85
2021/10/14 03:23:48;;;;;;;8.05;5.65;;;;;;;;;;5020524;28;20025;-85
2021/10/14 03:26:14;;;;;;;6.50;4.82;;;;;;;;;;5020301;28;20022;-86
2021/10/14 03:28:40;;;;;;;5.65;4.40;;;;;;;;;;5002734;28;20034;-87
2021/10/14 03:31:06;;;;;;;7.45;4.18;;;;;;;;;;5020517;28;20030;-88
2021/10/14 03:33:32;;;;;;;6.43;4.65;;;;;;;;;;5003350;28;20030;-88
2021/10/14 03:35:58;;;;;;;5.13;4.50;;;;;;;;;;5020380;28;20457;-85
2021/10/14 03:38:24;;;;;;;5.90;4.47;;;;;;;;;;5020324;28;20340;-85
2021/10/14 03:40:51;;;;;;;5.50;4.25;;;;;;;;;;5019962;28;20025;-85
2021/10/14 03:43:17;;;;;;;7.15;5.22;;;;;;;;;;5019139;28;20034;-85
2021/10/14 03:45:43;;;;;;;7.50;4.72;;;;;;;;;;5019026;28;20129;-85
2021/10/14 03:48:09;;;;;;;12.40;6.55;;;;;;;;;;5020226;28;20320;-84
2021/10/14 03:50:35;;;;;;;14.98;8.95;;;;;;;;;;5018782;28;20065;-84
2021/10/14 03:53:01;;;;;;;12.05;7.97;;;;;;;;;;5019900;28;20062;-86
2021/10/14 03:55:27;;;;;;;12.15;7.00;;;;;;;;;;5020050;28;20033;-86
2021/10/14 03:57:55;;;;;;;11.02;5.65;;;;;;;;;;5019786;28;20038;-86
2021/10/14 04:00:21;;;;;;;7.75;5.80;;;;;;;;;;5018325;28;20046;-85
2021/10/14 04:02:47;;;;;;;12.23;7.95;;;;;;;;;;5019838;28;20029;-85
2021/10/14 04:05:13;;;;;;;14.68;8.77;;;;;;;;;;5019583;28;20033;-85
2021/10/14 04:07:40;;;;;;;11.27;7.32;;;;;;;;;;5019964;28;20034;-85
2021/10/14 04:10:06;;;;;;;9.15;6.57;;;;;;;;;;5018448;28;20336;-85
2021/10/14 04:12:32;;;;;;;8.32;6.20;;;;;;;;;;5019557;28;20036;-85
2021/10/14 04:14:58;;;;;;;11.77;5.90;;;;;;;;;;5019936;28;20022;-87
2021/10/14 04:17:24;;;;;;;9.45;6.40;;;;;;;;;;5002123;28;20087;-88
2021/10/14 04:22:54;;;;;;;9.55;6.60;;;;;;;;;;5019802;28;20033;-85
2021/10/14 04:25:21;;;;;;;9.88;6.78;;;;;;;;;;5019239;28;20467;-85
2021/10/14 04:27:47;;;;;;;15.75;8.02;;;;;;;;;;5019398;28;20104;-86
2021/10/14 04:30:13;;;;;;;14.15;9.25;;;;;;;;;;5019613;28;20026;-86
2021/10/14 04:32:39;;;;;;;30.55;17.38;;;;;;;;;;5001353;28;20033;-85
2021/10/14 04:35:05;;;;;;;30.00;15.35;;;;;;;;;;5019432;28;20059;-88
2021/10/14 04:37:31;;;;;;;20.83;11.27;;;;;;;;;;5001967;28;20022;-88
2021/10/14 04:39:57;;;;;;;12.15;7.22;;;;;;;;;;5001670;28;20038;-86
2021/10/14 04:42:24;;;;;;;10.73;6.50;;;;;;;;;;5001784;28;20055;-87
2021/10/14 04:44:50;;;;;;;13.77;8.13;;;;;;;;;;5019321;28;20049;-87
2021/10/14 04:47:18;;;;;;;15.07;8.48;;;;;;;;;;5019264;28;20033;-87
2021/10/14 04:49:45;;;;;;;19.13;8.30;;;;;;;;;;5001670;28;20022;-87
2021/10/14 04:52:11;;;;;;;11.88;7.18;;;;;;;;;;5018896;28;20113;-87
2021/10/14 04:54:37;;;;;;;14.20;7.20;;;;;;;;;;5016913;28;20022;-88
2021/10/14 04:57:03;;;;;;;10.15;5.72;;;;;;;;;;5038852;28;20100;-87
2021/10/14 04:59:29;;;;;;;9.73;6.28;;;;;;;;;;5038668;28;20041;-87
2021/10/14 05:01:55;;;;;;;9.15;5.57;;;;;;;;;;5021129;28;20083;-87
2021/10/14 05:04:22;;;;;;;12.68;7.22;;;;;;;;;;5038733;28;20053;-87
2021/10/14 05:06:48;;;;;;;12.27;7.22;;;;;;;;;;5021159;28;20029;-89
2021/10/14 05:09:14;;;;;;;15.88;7.50;;;;;;;;;;5038493;28;20050;-89
2021/10/14 05:11:40;;;;;;;12.45;7.50;;;;;;;;;;5038274;28;20039;-87
2021/10/14 05:14:06;;;;;;;13.57;7.90;;;;;;;;;;5022399;28;20050;-86
2021/10/14 05:16:33;;;;;;;14.38;8.40;;;;;;;;;;5018359;28;20430;-86
2021/10/14 05:19:00;;;;;;;16.38;9.77;;;;;;;;;;5018365;28;20034;-86
2021/10/14 05:21:26;;;;;;;18.83;10.98;;;;;;;;;;5018391;28;20037;-86
2021/10/14 05:23:52;;;;;;;17.70;10.32;;;;;;;;;;5018405;28;20030;-85
2021/10/14 05:26:18;;;;;;;22.13;12.77;;;;;;;;;;5000607;28;20059;-87
2021/10/14 05:28:44;;;;;;;18.27;11.48;;;;;;;;;;5018354;28;20464;-86
2021/10/14 05:31:10;;;;;;;19.60;9.63;;;;;;;;;;5000727;28;20416;-87
2021/10/14 05:33:55;;;;;;;13.93;8.02;;;;;;;;;;5017543;28;20026;-85
2021/10/14 05:36:21;;;;;;;15.75;9.30;;;;;;;;;;5018514;28;20049;-86
2021/10/14 05:38:47;;;;;;;15.68;9.57;;;;;;;;;;5032669;28;20033;-86
2021/10/14 05:41:14;;;;;;;13.13;8.23;;;;;;;;;;5037792;28;20366;-86
2021/10/14 05:43:40;;;;;;;14.18;8.60;;;;;;;;;;5038003;28;20355;-87
2021/10/14 05:46:06;;;;;;;10.95;7.80;;;;;;;;;;5037686;28;20071;-86
2021/10/14 05:48:32;;;;;;;18.35;9.23;;;;;;;;;;5020280;28;20074;-86
2021/10/14 05:50:58;;;;;;;28.90;11.75;;;;;;;;;;5030703;28;20017;-89
2021/10/14 05:53:24;;;;;;;20.17;10.73;;;;;;;;;;5018067;28;20021;-87
2021/10/14 05:55:50;;;;;;;27.77;13.40;;;;;;;;;;5000536;28;20022;-84
2021/10/14 05:58:16;;;;;;;27.27;13.05;;;;;;;;;;4999677;28;20031;-85
2021/10/14 06:00:42;;;;;;;20.30;10.65;;;;;;;;;;5030342;28;20443;-87
2021/10/14 06:03:10;;;;;;;23.98;12.43;;;;;;;;;;5022924;28;20343;-86
2021/10/14 06:05:36;;;;;;;26.65;13.73;;;;;;;;;;5000899;28;20030;-89
2021/10/14 06:08:02;;;;;;;27.08;15.38;;;;;;;;;;5006741;28;20121;-85
2021/10/14 06:10:28;;;;;;;21.75;11.57;;;;;;;;;;5016450;28;20044;-82
2021/10/14 06:12:54;;;;;;;21.90;12.65;;;;;;;;;;5017150;28;20030;-81
2021/10/14 06:15:20;;;;;;;24.55;11.32;;;;;;;;;;5017453;28;20030;-81
2021/10/14 06:17:46;;;;;;;16.30;9.45;;;;;;;;;;5017116;28;20022;-81
2021/10/14 06:20:12;;;;;;;28.00;13.32;;;;;;;;;;5017147;28;20032;-81
2021/10/14 06:22:38;;;;;;;23.23;11.90;;;;;;;;;;5017374;28;20029;-81
2021/10/14 06:25:05;;;;;;;26.48;12.73;;;;;;;;;;5017010;28;20026;-82
2021/10/14 06:27:31;;;;;;;25.75;12.70;;;;;;;;;;5016993;28;20021;-88
2021/10/14 06:29:59;;;;;;;23.60;13.15;;;;;;;;;;5017005;28;20038;-80
2021/10/14 06:32:26;;;;;;;29.85;12.50;;;;;;;;;;5017187;28;20070;-79
2021/10/14 06:34:52;;;;;;;23.85;13.98;;;;;;;;;;5016821;28;20065;-80
2021/10/14 06:37:18;;;;;;;33.28;14.23;;;;;;;;;;5016935;28;20030;-79
2021/10/14 06:39:44;;;;;;;23.83;13.55;;;;;;;;;;5016737;28;20030;-81
2021/10/14 06:42:10;;;;;;;34.17;15.75;;;;;;;;;;5016936;28;20034;-80
2021/10/14 06:44:36;;;;;;;56.42;19.23;;;;;;;;;;5019363;28;20034;-80
2021/10/14 06:47:02;;;;;;;86.13;28.55;;;;;;;;;;5019629;28;20121;-80
2021/10/14 06:49:29;;;;;;;333.50;102.13;;;;;;;;;;5020746;28;20105;-80
2021/10/14 06:51:55;;;;;;;163.20;54.17;;;;;;;;;;5019425;28;20081;-80
2021/10/14 06:54:22;;;;;;;88.60;40.47;;;;;;;;;;5020323;28;20050;-80
2021/10/14 06:56:48;;;;;;;35.03;18.67;;;;;;;;;;5020431;28;20375;-80
2021/10/14 06:59:14;;;;;;;26.23;14.75;;;;;;;;;;5027320;28;20088;-80
2021/10/14 07:01:40;;;;;;;25.48;15.30;;;;;;;;;;5022576;28;20029;-80
2021/10/14 07:04:06;;;;;;;23.83;15.30;;;;;;;;;;5022660;28;20025;-80
2021/10/14 07:06:33;;;;;;;20.70;13.48;;;;;;;;;;5040145;28;20021;-80
2021/10/14 07:08:59;;;;;;;22.55;15.85;;;;;;;;;;5039897;28;20443;-80
2021/10/14 07:11:32;;;;;;;23.13;13.63;;;;;;;;;;5022399;28;20368;-79
2021/10/14 07:13:58;;;;;;;28.17;18.88;;;;;;;;;;5040218;28;20024;-80
2021/10/14 07:16:25;;;;;;;27.25;17.63;;;;;;;;;;5022357;28;20036;-80
2021/10/14 07:18:51;;;;;;;29.98;18.92;;;;;;;;;;5039852;28;20111;-80
2021/10/14 07:21:17;;;;;;;28.48;17.40;;;;;;;;;;5039913;28;20072;-80
2021/10/14 07:23:43;;;;;;;23.63;15.38;;;;;;;;;;5022300;28;20029;-80
2021/10/14 07:26:09;;;;;;;25.42;16.83;;;;;;;;;;5039670;28;20032;-80
2021/10/14 07:28:37;;;;;;;30.58;19.35;;;;;;;;;;5022143;28;20071;-80
2021/10/14 07:31:03;;;;;;;25.75;16.45;;;;;;;;;;5039714;28;20025;-82
2021/10/14 07:33:29;;;;;;;33.75;21.35;;;;;;;;;;5039606;28;20032;-80
2021/10/14 07:35:55;;;;;;;24.70;18.42;;;;;;;;;;5021998;28;20026;-80
2021/10/14 07:38:21;;;;;;;22.27;16.00;;;;;;;;;;5039637;28;20387;-84
2021/10/14 07:40:47;;;;;;;24.92;16.23;;;;;;;;;;5022860;28;20037;-87
2021/10/14 07:43:14;;;;;;;19.17;14.73;;;;;;;;;;5040371;28;20430;-87
2021/10/14 07:45:41;;;;;;;25.85;18.35;;;;;;;;;;5040284;28;20036;-87
2021/10/14 07:48:10;;;;;;;32.17;19.65;;;;;;;;;;5040083;28;20355;-87
2021/10/14 07:50:55;;;;;;;21.67;15.63;;;;;;;;;;5039850;28;20047;-88
2021/10/14 07:53:21;;;;;;;22.25;16.38;;;;;;;;;;5039719;28;20028;-87
2021/10/14 07:55:47;;;;;;;29.15;21.25;;;;;;;;;;5038985;28;20025;-87
2021/10/14 07:58:13;;;;;;;28.33;21.42;;;;;;;;;;5039640;28;20422;-87
2021/10/14 08:00:40;;;;;;;26.45;18.85;;;;;;;;;;5039528;28;20068;-87
2021/10/14 08:03:06;;;;;;;29.85;19.15;;;;;;;;;;5022358;28;20043;-87
2021/10/14 08:05:32;;;;;;;22.50;15.02;;;;;;;;;;5039383;28;20029;-87
2021/10/14 08:07:59;;;;;;;23.30;15.85;;;;;;;;;;5039425;28;20025;-88
2021/10/14 08:10:26;;;;;;;25.20;17.35;;;;;;;;;;5039201;28;20446;-87
2021/10/14 08:12:52;;;;;;;26.40;18.38;;;;;;;;;;5039738;28;20032;-87
2021/10/14 08:15:18;;;;;;;23.88;17.38;;;;;;;;;;5021917;28;20032;-87
2021/10/14 08:17:44;;;;;;;40.40;26.17;;;;;;;;;;5039327;28;20017;-86
2021/10/14 08:23:14;;;;;;;49.05;27.95;;;;;;;;;;5039679;28;20120;-87
2021/10/14 08:25:40;;;;;;;36.13;22.70;;;;;;;;;;5021778;28;20021;-87
2021/10/14 08:28:06;;;;;;;31.15;19.48;;;;;;;;;;5021768;28;20036;-87
2021/10/14 08:30:32;;;;;;;27.02;18.25;;;;;;;;;;5039004;28;20029;-87
2021/10/14 08:32:58;;;;;;;28.95;18.48;;;;;;;;;;5039078;28;20116;-87
2021/10/14 08:35:43;;;;;;;25.70;16.27;;;;;;;;;;5038932;28;20411;-87
2021/10/14 08:38:10;;;;;;;29.33;18.40;;;;;;;;;;5039252;28;20052;-87
2021/10/14 08:40:37;;;;;;;29.35;21.45;;;;;;;;;;5039044;28;20030;-87
2021/10/14 08:43:09;;;;;;;36.92;22.63;;;;;;;;;;5039050;28;20033;-88
2021/10/14 08:45:36;;;;;;;55.42;30.65;;;;;;;;;;5021140;28;20068;-87
2021/10/14 08:48:02;;;;;;;44.63;26.83;;;;;;;;;;5038794;28;20029;-86
2021/10/14 08:50:29;;;;;;;43.28;25.33;;;;;;;;;;5020856;28;20351;-77
2021/10/14 08:52:55;;;;;;;36.70;23.63;;;;;;;;;;5038083;28;20044;-76
2021/10/14 08:55:21;;;;;;;67.10;34.58;;;;;;;;;;5020633;28;20026;-75
2021/10/14 08:57:47;;;;;;;52.90;28.08;;;;;;;;;;5020431;28;20043;-76
2021/10/14 09:00:13;;;;;;;35.78;21.65;;;;;;;;;;5037762;28;20073;-76
2021/10/14 09:02:41;;;;;;;37.75;22.92;;;;;;;;;;5037425;28;20022;-76
2021/10/14 09:05:13;;;;;;;35.58;22.48;;;;;;;;;;5037909;28;20030;-76
2021/10/14 09:07:39;;;;;;;;;;;;;;;;;;5037394;28;20021;-81
2021/10/14 09:10:11;;;;;;;48.67;28.83;;;;;;;;;;5037625;28;20349;-76
2021/10/14 09:12:38;;;;;;;39.63;25.13;;;;;;;;;;5037846;28;20053;-76
2021/10/14 09:15:09;;;;;;;32.28;22.95;;;;;;;;;;5037987;28;20025;-76
2021/10/14 09:17:41;;;;;;;39.63;25.55;;;;;;;;;;5020176;28;20025;-76
2021/10/14 09:20:26;;;;;;;31.05;22.80;;;;;;;;;;5037521;28;20033;-76
2021/10/14 09:22:56;;;;;;;86.13;45.88;;;;;;;;;;5037797;28;20033;-76
2021/10/14 09:25:34;;;;;;;103.82;53.17;;;;;;;;;;5037522;28;20132;-76
2021/10/14 09:28:17;;;;;;;92.53;52.10;;;;;;;;;;5037483;28;20109;-76
2021/10/14 09:30:52;;;;;;;47.28;29.38;;;;;;;;;;5037309;28;20029;-76
2021/10/14 09:33:31;;;;;;;33.97;24.98;;;;;;;;;;5037323;28;20064;-76
2021/10/14 09:36:10;;;;;;;40.25;27.75;;;;;;;;;;5037306;28;20032;-76
2021/10/14 09:38:36;;;;;;;27.92;21.00;;;;;;;;;;5019928;28;20105;-76
2021/10/14 09:41:06;;;;;;;26.58;20.20;;;;;;;;;;5036981;28;20120;-76
2021/10/14 09:43:32;;;;;;;28.65;20.67;;;;;;;;;;5037037;28;20538;-76
2021/10/14 09:45:58;;;;;;;49.33;32.78;;;;;;;;;;5037085;28;20029;-76
2021/10/14 09:48:24;;;;;;;42.65;29.45;;;;;;;;;;5037417;28;20025;-76
2021/10/14 09:50:51;;;;;;;31.40;22.15;;;;;;;;;;5036877;28;20029;-76
2021/10/14 09:53:21;;;;;;;33.47;20.80;;;;;;;;;;5036966;28;20438;-76
2021/10/14 09:55:51;;;;;;;35.58;24.70;;;;;;;;;;5037199;28;20044;-76
2021/10/14 09:58:18;;;;;;;23.88;17.70;;;;;;;;;;5036914;28;20028;-76
2021/10/14 10:00:44;;;;;;;26.15;18.50;;;;;;;;;;5036832;28;20045;-77
2021/10/14 10:03:11;;;;;;;22.55;17.33;;;;;;;;;;5037026;28;20026;-75
2021/10/14 10:05:40;;;;;;;22.80;16.90;;;;;;;;;;5036923;28;20033;-76
2021/10/14 10:08:09;;;;;;;18.85;15.85;;;;;;;;;;5036958;28;20029;-76
2021/10/14 10:10:36;;;;;;;20.50;15.43;;;;;;;;;;5036986;28;20052;-76
2021/10/14 10:13:03;;;;;;;19.63;15.25;;;;;;;;;;5036857;28;20021;-76
2021/10/14 10:15:43;;;;;;;18.08;14.88;;;;;;;;;;5019318;28;20032;-75
2021/10/14 10:18:27;;;;;;;25.17;16.52;;;;;;;;;;5037280;28;20045;-76
2021/10/14 10:21:10;;;;;;;28.88;17.88;;;;;;;;;;5040907;28;20105;-76
2021/10/14 10:23:42;;;;;;;26.55;19.15;;;;;;;;;;5041064;28;20025;-76
2021/10/14 10:26:27;;;;;;;25.10;19.75;;;;;;;;;;5023290;28;20083;-75
2021/10/14 10:28:53;;;;;;;25.00;18.83;;;;;;;;;;5040716;28;20041;-75
2021/10/14 10:31:19;;;;;;;24.23;19.05;;;;;;;;;;5040853;28;20029;-75
2021/10/14 10:33:51;;;;;;;23.55;18.83;;;;;;;;;;5041011;28;20032;-75
2021/10/14 10:36:35;;;;;;;23.30;18.05;;;;;;;;;;5040634;28;20068;-75
2021/10/14 10:39:02;;;;;;;22.63;18.00;;;;;;;;;;5040441;28;20075;-76
2021/10/14 10:41:28;;;;;;;20.95;17.80;;;;;;;;;;5022855;28;20037;-75
2021/10/14 10:44:00;;;;;;;18.38;15.77;;;;;;;;;;5040702;28;20029;-76
2021/10/14 10:46:29;;;;;;;19.85;16.20;;;;;;;;;;5040754;28;20026;-76
2021/10/14 10:48:55;;;;;;;21.70;16.45;;;;;;;;;;5040536;28;20032;-76
2021/10/14 10:51:29;;;;;;;21.52;16.42;;;;;;;;;;5040139;28;20029;-76
2021/10/14 10:53:56;;;;;;;18.75;16.70;;;;;;;;;;5022837;28;20423;-76
2021/10/14 10:56:37;;;;;;;20.98;16.20;;;;;;;;;;5040500;28;20037;-76
2021/10/14 10:59:03;;;;;;;18.95;15.48;;;;;;;;;;5039944;28;20045;-76
2021/10/14 11:01:29;;;;;;;21.23;15.73;;;;;;;;;;5040208;28;20025;-75
2021/10/14 11:03:58;;;;;;;18.67;15.80;;;;;;;;;;5040272;28;20045;-76
2021/10/14 11:06:25;;;;;;;37.40;27.55;;;;;;;;;;5022538;28;20323;-76
2021/10/14 11:08:52;;;;;;;19.45;16.55;;;;;;;;;;5039898;28;20076;-76
2021/10/14 11:11:21;;;;;;;21.35;16.98;;;;;;;;;;5039911;28;20474;-76
2021/10/14 11:13:48;;;;;;;19.42;16.05;;;;;;;;;;5040245;28;20348;-76
2021/10/14 11:16:15;;;;;;;17.63;14.95;;;;;;;;;;5039874;28;20412;-76
2021/10/14 11:18:43;;;;;;;19.55;15.70;;;;;;;;;;5022156;28;20490;-75
2021/10/14 11:21:12;;;;;;;23.42;17.60;;;;;;;;;;5039711;28;20030;-75
2021/10/14 11:23:41;;;;;;;64.72;28.77;;;;;;;;;;5039981;28;20029;-75
2021/10/14 11:26:14;;;;;;;20.40;16.50;;;;;;;;;;5039745;28;20030;-75
2021/10/14 11:29:01;;;;;;;21.42;16.95;;;;;;;;;;5039634;28;20025;-76
2021/10/14 11:31:29;;;;;;;23.63;18.83;;;;;;;;;;5038497;28;20057;-75
2021/10/14 11:33:56;;;;;;;21.85;17.60;;;;;;;;;;5039536;28;20022;-76
2021/10/14 11:36:22;;;;;;;19.67;16.25;;;;;;;;;;5031510;28;20022;-76
2021/10/14 11:38:59;;;;;;;20.67;18.05;;;;;;;;;;5039540;28;20038;-75
2021/10/14 11:41:25;;;;;;;20.75;17.80;;;;;;;;;;5039646;28;20033;-76
2021/10/14 11:43:59;;;;;;;16.42;14.35;;;;;;;;;;5039226;28;20021;-76
2021/10/14 11:46:26;;;;;;;20.08;17.20;;;;;;;;;;5039309;28;20029;-76
2021/10/14 11:48:56;;;;;;;18.60;14.88;;;;;;;;;;5039353;28;20028;-76
2021/10/14 11:51:22;;;;;;;17.92;14.60;;;;;;;;;;5031026;28;20029;-75
2021/10/14 11:53:55;;;;;;;19.70;16.30;;;;;;;;;;5039406;28;20044;-76
2021/10/14 11:56:21;;;;;;;25.85;19.73;;;;;;;;;;5031524;28;20022;-75
2021/10/14 11:58:48;;;;;;;20.42;15.95;;;;;;;;;;5039021;28;20168;-76
2021/10/14 12:01:14;;;;;;;27.98;21.30;;;;;;;;;;5021339;28;20029;-75
2021/10/14 12:03:43;;;;;;;17.05;13.25;;;;;;;;;;5039015;28;20025;-76
2021/10/14 12:06:10;;;;;;;15.50;13.57;;;;;;;;;;5038974;28;20061;-76
2021/10/14 12:08:37;;;;;;;15.73;13.32;;;;;;;;;;5038993;28;20076;-75
2021/10/14 12:11:15;;;;;;;18.88;14.95;;;;;;;;;;5039017;28;20025;-76
2021/10/14 12:13:41;;;;;;;27.35;17.90;;;;;;;;;;5038930;28;20105;-76
2021/10/14 12:16:08;;;;;;;27.60;19.00;;;;;;;;;;5038819;28;20029;-76
2021/10/14 12:18:34;;;;;;;56.70;33.05;;;;;;;;;;5038808;28;20312;-76
2021/10/14 12:21:01;;;;;;;26.38;20.02;;;;;;;;;;5038795;28;20434;-76
2021/10/14 12:23:28;;;;;;;20.40;16.50;;;;;;;;;;5021108;28;20099;-76
2021/10/14 12:26:09;;;;;;;29.30;17.42;;;;;;;;;;5037958;28;20057;-76
2021/10/14 12:28:35;;;;;;;32.97;21.52;;;;;;;;;;5038530;28;20018;-76
2021/10/14 12:31:14;;;;;;;33.00;22.63;;;;;;;;;;5020929;28;20423;-76
2021/10/14 12:33:41;;;;;;;22.52;15.68;;;;;;;;;;5020875;28;20033;-75
2021/10/14 12:36:07;;;;;;;19.77;14.57;;;;;;;;;;5038386;28;20029;-76
2021/10/14 12:38:34;;;;;;;28.67;18.45;;;;;;;;;;5038476;28;20061;-76
2021/10/14 12:41:05;;;;;;;15.55;13.15;;;;;;;;;;5038073;28;20022;-75
2021/10/14 12:43:46;;;;;;;16.90;12.63;;;;;;;;;;5033900;28;20412;-76
2021/10/14 12:46:22;;;;;;;19.48;12.70;;;;;;;;;;5038312;28;20156;-76
2021/10/14 12:48:53;;;;;;;23.42;17.05;;;;;;;;;;5038235;28;20313;-75
2021/10/14 12:53:56;;;;;;;36.42;22.08;;;;;;;;;;5038095;28;20075;-75
2021/10/14 12:56:32;;;;;;;23.70;17.45;;;;;;;;;;5038024;28;20453;-79
2021/10/14 12:59:03;;;;;;;23.95;17.02;;;;;;;;;;5020245;28;20045;-81
2021/10/14 13:01:29;;;;;;;25.63;17.35;;;;;;;;;;5020148;28;20044;-80
2021/10/14 13:03:55;;;;;;;21.05;15.07;;;;;;;;;;5020537;28;20120;-81
2021/10/14 13:06:22;;;;;;;26.55;17.10;;;;;;;;;;5037734;28;20030;-80
2021/10/14 13:08:49;;;;;;;19.27;13.02;;;;;;;;;;5037797;28;20044;-80
2021/10/14 13:11:15;;;;;;;17.60;13.63;;;;;;;;;;5037806;28;20029;-80
2021/10/14 13:13:42;;;;;;;17.15;12.65;;;;;;;;;;5020383;28;20044;-90
2021/10/14 13:16:09;;;;;;;20.55;10.32;;;;;;;;;;5038163;28;20403;-94
2021/10/14 13:18:35;;;;;;;16.80;11.60;;;;;;;;;;5038373;28;20026;-94
2021/10/14 13:21:03;;;;;;;22.63;12.20;;;;;;;;;;5038114;28;20021;-94
2021/10/14 13:23:29;;;;;;;14.23;11.07;;;;;;;;;;5038620;28;20292;-94
2021/10/14 13:25:56;;;;;;;15.88;12.40;;;;;;;;;;5021130;28;20036;-94
2021/10/14 13:28:25;;;;;;;19.88;12.68;;;;;;;;;;5038986;28;20041;-94
2021/10/14 13:30:51;;;;;;;21.83;13.25;;;;;;;;;;5021216;28;20415;-94
2021/10/14 13:33:20;;;;;;;14.90;11.68;;;;;;;;;;5038491;28;20021;-95
2021/10/14 13:35:47;;;;;;;13.45;12.02;;;;;;;;;;5020579;28;20029;-94
2021/10/14 13:38:17;;;;;;;14.57;11.88;;;;;;;;;;5038488;28;20025;-95
2021/10/14 13:40:48;;;;;;;18.17;12.18;;;;;;;;;;5021451;28;20041;-95
2021/10/14 13:43:23;;;;;;;15.60;12.43;;;;;;;;;;5021109;28;20366;-95
2021/10/14 13:45:49;;;;;;;16.13;11.43;;;;;;;;;;5023138;28;20259;-95
2021/10/14 13:48:15;;;;;;;16.10;12.27;;;;;;;;;;5021201;28;20040;-94
2021/10/14 13:50:42;;;;;;;16.40;12.32;;;;;;;;;;5001739;28;20435;-94
2021/10/14 13:53:09;;;;;;;19.00;12.68;;;;;;;;;;5002007;28;20352;-95
2021/10/14 13:55:35;;;;;;;26.73;19.58;;;;;;;;;;5020296;28;20097;-95
2021/10/14 13:58:01;;;;;;;26.20;18.70;;;;;;;;;;5018957;28;20022;-95
2021/10/14 14:00:27;;;;;;;24.67;19.75;;;;;;;;;;4984322;28;20066;-95
2021/10/14 14:02:53;;;;;;;22.73;17.52;;;;;;;;;;4998034;28;20026;-94
2021/10/14 14:05:19;;;;;;;16.77;12.82;;;;;;;;;;4981082;28;20029;-92
2021/10/14 14:07:45;;;;;;;16.52;13.27;;;;;;;;;;4980901;28;20325;-92
2021/10/14 14:10:11;;;;;;;16.08;13.13;;;;;;;;;;4998512;28;20027;-90
2021/10/14 14:12:38;;;;;;;19.02;12.88;;;;;;;;;;4998182;28;20023;-91
2021/10/14 14:15:04;;;;;;;19.33;14.32;;;;;;;;;;4998120;28;20019;-88
2021/10/14 14:17:30;;;;;;;25.63;15.93;;;;;;;;;;4997796;28;20023;-86
2021/10/14 14:19:56;;;;;;;15.05;11.60;;;;;;;;;;4997780;28;20022;-86
2021/10/14 14:22:22;;;;;;;15.77;12.10;;;;;;;;;;4980542;28;20023;-85
2021/10/14 14:24:48;;;;;;;16.58;13.10;;;;;;;;;;4997755;28;20069;-85
2021/10/14 14:27:14;;;;;;;22.77;15.18;;;;;;;;;;4998030;28;20034;-85
2021/10/14 14:29:41;;;;;;;19.95;14.60;;;;;;;;;;4998083;28;20018;-85
2021/10/14 14:32:08;;;;;;;19.83;13.50;;;;;;;;;;4997636;28;20030;-86
2021/10/14 14:34:34;;;;;;;15.65;13.18;;;;;;;;;;4980596;28;20019;-86
2021/10/14 14:37:00;;;;;;;15.75;13.10;;;;;;;;;;4997774;28;20054;-85
2021/10/14 14:39:26;;;;;;;16.50;12.60;;;;;;;;;;4997699;28;20038;-85
2021/10/14 14:41:52;;;;;;;27.80;17.60;;;;;;;;;;4980278;28;20039;-85
2021/10/14 14:44:18;;;;;;;14.50;12.07;;;;;;;;;;4997438;28;20062;-86
2021/10/14 14:46:45;;;;;;;18.00;13.23;;;;;;;;;;4980647;28;20030;-85
2021/10/14 14:49:15;;;;;;;17.95;12.52;;;;;;;;;;4997639;28;20034;-84
2021/10/14 14:51:42;;;;;;;21.73;14.48;;;;;;;;;;4997700;28;20106;-84
2021/10/14 14:54:08;;;;;;;17.70;12.60;;;;;;;;;;4980147;28;20041;-83
2021/10/14 14:56:35;;;;;;;12.77;10.55;;;;;;;;;;4980191;28;20035;-83